Emerald Star — WCW7286 — position and weather

sailwx.info

Track history (hours):
 
Tides and Currents Weather Stations Pressure Air Temp Water Temp Dewpoint Dewpoint Depression Visibility Wind Speed Wind Dir Waves Ship Positions

Emerald Star

Owner: WATERWAYS CRUISES INC, SEATTLE, WA. More information available from US FCC via Universal Licensing System and Coast Guard Vessel Documentation Center.

Last reported at 2018-Feb-24 05:48 UTC. Time now 2018-Feb-24 15:55 UTC.
Position N 47°39' W 122°20'.

Length 32 m; draft 1.5 m.

Type: Passenger vessel. MMSI: 367122360.

Date/timePositionNaut miles runAvg speedWind from/ knotsBaromVisibWave heightAir tempDewpointWater temp
2018-Feb-24 05:48N 47°39' W 122°20'0 0.0
2018-Feb-24 05:28N 47°39' W 122°20'1 3.2
2018-Feb-24 05:01N 47°39' W 122°22'2 3.0
2018-Feb-24 04:30N 47°38' W 122°20'3 5.4
2018-Feb-24 04:00N 47°39' W 122°16'1 1.5
2018-Feb-24 03:30N 47°38' W 122°16'3 0.3
2018-Feb-23 17:51N 47°39' W 122°20'0 0.0
2018-Feb-23 17:30N 47°39' W 122°20'0 0.0
2018-Feb-23 16:57N 47°39' W 122°20'0 0.0
2018-Feb-23 15:51N 47°39' W 122°20'0 0.0
2018-Feb-23 14:56N 47°39' W 122°20'0 0.0
2018-Feb-23 14:20N 47°39' W 122°20'0 0.0
2018-Feb-23 13:53N 47°39' W 122°20'0 0.0
2018-Feb-23 13:29N 47°39' W 122°20'0 0.0
2018-Feb-23 12:47N 47°39' W 122°20'0 0.0
2018-Feb-23 12:20N 47°39' W 122°20'0 0.0
2018-Feb-23 11:56N 47°39' W 122°20'0 0.0
2018-Feb-23 11:20N 47°39' W 122°20'0 0.0
2018-Feb-23 10:56N 47°39' W 122°20'0 0.0
2018-Feb-23 10:29N 47°39' W 122°20'0 0.0
2018-Feb-22 23:11N 47°39' W 122°20'1 3.5
2018-Feb-22 23:01N 47°39' W 122°20'0 0.5
2018-Feb-22 22:30N 47°39' W 122°21'1 0.0
2018-Feb-21 20:12N 47°39' W 122°20'0 0.0
2018-Feb-21 18:54N 47°39' W 122°20'0 0.0
2018-Feb-21 18:27N 47°39' W 122°20'0 0.0
2018-Feb-21 17:42N 47°39' W 122°20'0 0.0
2018-Feb-21 17:27N 47°39' W 122°20'0 0.0
2018-Feb-21 16:57N 47°39' W 122°20'0 0.0
2018-Feb-21 16:09N 47°39' W 122°20'0 0.0
2018-Feb-20 10:42N 47°39' W 122°20'0 0.0
2018-Feb-20 07:56N 47°39' W 122°20'0 0.0
2018-Feb-18 20:53N 47°39' W 122°20'1 2.7
2018-Feb-18 20:31N 47°38' W 122°20'2 2.9
2018-Feb-18 19:59N 47°39' W 122°18'2 4.9
2018-Feb-18 19:29N 47°38' W 122°15'3 6.8
2018-Feb-18 19:00N 47°39' W 122°19'0 0.0
2018-Feb-18 04:58N 47°39' W 122°20'1 2.8
2018-Feb-18 04:30N 47°38' W 122°20'3 5.2
2018-Feb-18 04:00N 47°40' W 122°23'2 4.5
2018-Feb-18 03:30N 47°39' W 122°20'3 5.4
2018-Feb-18 03:00N 47°39' W 122°16'3 0.4
2018-Feb-17 20:55N 47°39' W 122°20'1 2.6
2018-Feb-17 20:30N 47°38' W 122°20'1 2.6
2018-Feb-17 20:00N 47°39' W 122°20'2 4.5
2018-Feb-17 19:30N 47°39' W 122°16'2 0.2
2018-Feb-17 04:55N 47°39' W 122°20'2 3.8
2018-Feb-17 04:30N 47°39' W 122°22'2 4.0
2018-Feb-17 04:00N 47°38' W 122°20'2 3.9
2018-Feb-17 03:30N 47°39' W 122°18'1 1.4
2018-Feb-17 03:00N 47°39' W 122°17'2 2.5
2018-Feb-17 02:10N 47°39' W 122°20'0 0.0
2018-Feb-16 06:50N 47°39' W 122°20'0 0.0
2018-Feb-15 04:53N 47°39' W 122°20'1 3.6
2018-Feb-15 04:31N 47°39' W 122°22'2 3.5
2018-Feb-15 04:00N 47°38' W 122°20'1 2.8
2018-Feb-15 03:31N 47°39' W 122°19'2 2.9
2018-Feb-15 02:59N 47°39' W 122°17'2 0.1
2018-Feb-14 11:21N 47°39' W 122°20'0 0.0
2018-Feb-14 10:54N 47°39' W 122°20'  
Track history (hours):
 
Tides and Currents Weather Stations Pressure Air Temp Water Temp Dewpoint Dewpoint Depression Visibility Wind Speed Wind Dir Waves Ship Positions

Emerald Star

Owner: WATERWAYS CRUISES INC, SEATTLE, WA. More information available from US FCC via Universal Licensing System and Coast Guard Vessel Documentation Center.

Last reported at 2018-Feb-24 05:48 UTC. Time now 2018-Feb-24 15:55 UTC.
Position N 47°39' W 122°20'.

Length 32 m; draft 1.5 m.

Type: Passenger vessel. MMSI: 367122360.

Date/timePositionNaut miles runAvg speedWind from/ knotsBaromVisibWave heightAir tempDewpointWater temp
2018-Feb-24 05:48N 47°39' W 122°20'0 0.0
2018-Feb-24 05:28N 47°39' W 122°20'1 3.2
2018-Feb-24 05:01N 47°39' W 122°22'2 3.0
2018-Feb-24 04:30N 47°38' W 122°20'3 5.4
2018-Feb-24 04:00N 47°39' W 122°16'1 1.5
2018-Feb-24 03:30N 47°38' W 122°16'3 0.3
2018-Feb-23 17:51N 47°39' W 122°20'0 0.0
2018-Feb-23 17:30N 47°39' W 122°20'0 0.0
2018-Feb-23 16:57N 47°39' W 122°20'0 0.0
2018-Feb-23 15:51N 47°39' W 122°20'0 0.0
2018-Feb-23 14:56N 47°39' W 122°20'0 0.0
2018-Feb-23 14:20N 47°39' W 122°20'0 0.0
2018-Feb-23 13:53N 47°39' W 122°20'0 0.0
2018-Feb-23 13:29N 47°39' W 122°20'0 0.0
2018-Feb-23 12:47N 47°39' W 122°20'0 0.0
2018-Feb-23 12:20N 47°39' W 122°20'0 0.0
2018-Feb-23 11:56N 47°39' W 122°20'0 0.0
2018-Feb-23 11:20N 47°39' W 122°20'0 0.0
2018-Feb-23 10:56N 47°39' W 122°20'0 0.0
2018-Feb-23 10:29N 47°39' W 122°20'0 0.0
2018-Feb-22 23:11N 47°39' W 122°20'1 3.5
2018-Feb-22 23:01N 47°39' W 122°20'0 0.5
2018-Feb-22 22:30N 47°39' W 122°21'1 0.0
2018-Feb-21 20:12N 47°39' W 122°20'0 0.0
2018-Feb-21 18:54N 47°39' W 122°20'0 0.0
2018-Feb-21 18:27N 47°39' W 122°20'0 0.0
2018-Feb-21 17:42N 47°39' W 122°20'0 0.0
2018-Feb-21 17:27N 47°39' W 122°20'0 0.0
2018-Feb-21 16:57N 47°39' W 122°20'0 0.0
2018-Feb-21 16:09N 47°39' W 122°20'0 0.0
2018-Feb-20 10:42N 47°39' W 122°20'0 0.0
2018-Feb-20 07:56N 47°39' W 122°20'0 0.0
2018-Feb-18 20:53N 47°39' W 122°20'1 2.7
2018-Feb-18 20:31N 47°38' W 122°20'2 2.9
2018-Feb-18 19:59N 47°39' W 122°18'2 4.9
2018-Feb-18 19:29N 47°38' W 122°15'3 6.8
2018-Feb-18 19:00N 47°39' W 122°19'0 0.0
2018-Feb-18 04:58N 47°39' W 122°20'1 2.8
2018-Feb-18 04:30N 47°38' W 122°20'3 5.2
2018-Feb-18 04:00N 47°40' W 122°23'2 4.5
2018-Feb-18 03:30N 47°39' W 122°20'3 5.4
2018-Feb-18 03:00N 47°39' W 122°16'3 0.4
2018-Feb-17 20:55N 47°39' W 122°20'1 2.6
2018-Feb-17 20:30N 47°38' W 122°20'1 2.6
2018-Feb-17 20:00N 47°39' W 122°20'2 4.5
2018-Feb-17 19:30N 47°39' W 122°16'2 0.2
2018-Feb-17 04:55N 47°39' W 122°20'2 3.8
2018-Feb-17 04:30N 47°39' W 122°22'2 4.0
2018-Feb-17 04:00N 47°38' W 122°20'2 3.9
2018-Feb-17 03:30N 47°39' W 122°18'1 1.4
2018-Feb-17 03:00N 47°39' W 122°17'2 2.5
2018-Feb-17 02:10N 47°39' W 122°20'0 0.0
2018-Feb-16 06:50N 47°39' W 122°20'0 0.0
2018-Feb-15 04:53N 47°39' W 122°20'1 3.6
2018-Feb-15 04:31N 47°39' W 122°22'2 3.5
2018-Feb-15 04:00N 47°38' W 122°20'1 2.8
2018-Feb-15 03:31N 47°39' W 122°19'2 2.9
2018-Feb-15 02:59N 47°39' W 122°17'2 0.1
2018-Feb-14 11:21N 47°39' W 122°20'0 0.0
2018-Feb-14 10:54N 47°39' W 122°20'  

Dump ship's entire track history